createdAt,value
2022-10-17T11:35:47.934Z,13.00
2022-10-17T11:39:01.498Z,4.50
2022-10-17T11:41:35.697Z,6.30
2022-10-17T11:44:12.767Z,5.00
2022-10-17T11:46:43.075Z,3.70
2022-10-17T11:49:20.432Z,3.40
2022-10-17T11:52:08.234Z,3.50
2022-10-17T11:54:41.799Z,3.50
2022-10-17T11:57:52.986Z,5.10
2022-10-17T12:00:42.716Z,5.00
2022-10-17T12:03:31.069Z,6.50
2022-10-17T12:06:17.697Z,4.70
2022-10-17T12:09:06.792Z,4.40
2022-10-17T12:11:40.028Z,4.00
2022-10-17T12:14:33.115Z,3.70
2022-10-17T12:17:01.690Z,3.30
2022-10-17T12:19:32.063Z,3.40
2022-10-17T12:22:04.099Z,3.40
2022-10-17T12:24:40.012Z,3.90
2022-10-17T12:27:58.206Z,3.60
2022-10-17T12:33:06.183Z,4.10
2022-10-17T12:35:36.506Z,4.10
2022-10-17T12:38:18.613Z,5.70
2022-10-17T12:40:49.936Z,4.40
2022-10-17T12:43:36.342Z,4.00
2022-10-17T12:46:04.896Z,4.10
2022-10-17T12:53:57.075Z,3.10
2022-10-17T12:56:44.794Z,12.70
2022-10-17T12:59:23.526Z,4.20
2022-10-17T13:01:58.326Z,3.40
2022-10-17T13:04:27.888Z,3.40
2022-10-17T13:06:58.680Z,4.50
2022-10-17T13:09:30.181Z,4.50
2022-10-17T13:11:59.850Z,4.10
2022-10-17T13:14:28.081Z,4.00
2022-10-17T13:17:04.888Z,3.20
2022-10-17T13:19:41.539Z,4.10
2022-10-17T13:22:31.771Z,4.10
2022-10-17T13:25:13.774Z,3.90
2022-10-17T13:27:40.434Z,5.00
2022-10-17T13:30:32.666Z,3.70
2022-10-17T13:33:00.891Z,5.10
2022-10-17T13:35:55.425Z,4.30
2022-10-17T13:38:28.035Z,3.70
2022-10-17T13:41:01.632Z,3.70
2022-10-17T13:43:38.404Z,5.40
2022-10-17T13:46:25.460Z,5.10
2022-10-17T13:48:53.536Z,4.50
2022-10-17T13:51:20.454Z,4.00
2022-10-17T13:53:47.140Z,3.30
2022-10-17T13:56:30.123Z,3.10
2022-10-17T13:59:00.861Z,5.00
2022-10-17T14:01:28.931Z,3.90
2022-10-17T14:04:07.779Z,5.60
2022-10-17T14:06:44.038Z,4.40
2022-10-17T14:09:28.392Z,2.70
2022-10-17T14:12:04.089Z,5.00
2022-10-17T14:14:41.671Z,4.70
2022-10-17T14:17:24.854Z,4.00
2022-10-17T14:20:08.004Z,3.10
2022-10-17T14:22:44.576Z,3.10
2022-10-17T14:25:29.241Z,2.80
2022-10-17T14:28:16.494Z,4.60
2022-10-17T14:31:02.696Z,3.10
2022-10-17T14:33:31.475Z,3.90
2022-10-17T14:36:01.688Z,3.90
2022-10-17T14:38:29.266Z,5.40
2022-10-17T14:43:58.825Z,7.80
2022-10-17T14:46:27.485Z,7.60
2022-10-17T14:51:21.992Z,9.20
2022-10-17T14:54:26.804Z,8.00
2022-10-17T14:56:54.333Z,6.40
2022-10-17T14:59:51.461Z,5.90
2022-10-17T15:02:02.580Z,4.00
2022-10-17T15:04:29.237Z,5.80
2022-10-17T15:06:56.011Z,5.70
2022-10-17T15:09:23.367Z,6.40
2022-10-17T15:11:50.354Z,8.00
2022-10-17T15:14:16.915Z,13.80
2022-10-17T15:16:43.668Z,11.40
2022-10-17T15:19:13.064Z,16.90
2022-10-17T15:21:43.395Z,24.80
2022-10-17T15:24:14.370Z,28.70
2022-10-17T15:26:41.463Z,23.10
2022-10-17T15:29:14.123Z,24.50
2022-10-17T15:31:41.129Z,28.70
2022-10-17T15:34:07.859Z,26.40
2022-10-17T15:36:42.061Z,20.90
2022-10-17T15:39:09.782Z,20.40
2022-10-17T15:41:36.405Z,19.40
2022-10-17T15:44:03.256Z,15.80
2022-10-17T15:46:33.518Z,17.50
2022-10-17T15:49:10.978Z,18.50
2022-10-17T15:51:37.873Z,31.90
2022-10-17T15:54:05.827Z,41.10
2022-10-17T15:56:40.703Z,40.10
2022-10-17T15:59:12.887Z,45.30
2022-10-17T16:01:40.182Z,52.10
2022-10-17T16:04:12.195Z,40.90
2022-10-17T16:06:38.974Z,33.20
2022-10-17T16:09:05.847Z,30.70
2022-10-17T16:11:36.062Z,25.40
2022-10-17T16:14:05.754Z,29.70
2022-10-17T16:16:32.943Z,36.40
2022-10-17T16:19:00.801Z,39.10
2022-10-17T16:24:03.726Z,28.10
2022-10-17T16:26:30.573Z,30.80
2022-10-17T16:28:57.653Z,31.20
2022-10-17T16:31:28.747Z,43.30
2022-10-17T16:33:57.661Z,50.10
2022-10-17T16:38:53.518Z,46.80
2022-10-17T16:41:26.322Z,47.70
2022-10-17T16:43:56.023Z,39.60
2022-10-17T16:46:24.742Z,39.00
2022-10-17T16:48:51.349Z,36.80
2022-10-17T16:51:19.605Z,31.40
2022-10-17T16:53:49.642Z,33.00
2022-10-17T16:56:19.968Z,33.90
2022-10-17T16:58:47.032Z,37.40
2022-10-17T17:01:17.287Z,37.70
2022-10-17T17:03:45.689Z,47.20
2022-10-17T17:06:19.235Z,44.60
2022-10-17T17:08:46.769Z,43.90
2022-10-17T17:11:17.146Z,40.40
2022-10-17T17:13:44.211Z,37.60
2022-10-17T17:16:13.829Z,43.80
2022-10-17T17:18:41.496Z,40.50
2022-10-17T17:21:09.904Z,49.60
2022-10-17T17:23:39.497Z,46.70
2022-10-17T17:26:18.014Z,38.40
2022-10-17T17:28:45.091Z,39.80
2022-10-17T17:31:23.693Z,46.90
2022-10-17T17:36:21.326Z,62.30
2022-10-17T17:38:49.733Z,76.60
2022-10-17T17:41:18.373Z,97.70
2022-10-17T17:43:46.770Z,71.00
2022-10-17T17:46:15.966Z,59.90
2022-10-17T17:48:45.936Z,51.10
2022-10-17T17:51:15.545Z,53.80
2022-10-17T17:53:42.684Z,38.70
2022-10-17T17:56:20.102Z,30.10
2022-10-17T17:58:48.207Z,36.40
2022-10-17T18:01:20.889Z,34.00
2022-10-17T18:03:49.417Z,35.00
2022-10-17T18:06:17.073Z,36.90
2022-10-17T18:08:45.757Z,39.00
2022-10-17T18:13:39.165Z,34.50
2022-10-17T18:16:12.851Z,29.20
2022-10-17T18:18:41.414Z,34.00
2022-10-17T18:21:09.431Z,40.10
2022-10-17T18:23:40.495Z,53.00
2022-10-17T18:26:07.505Z,41.10
2022-10-17T18:28:35.991Z,35.20
2022-10-17T18:31:35.049Z,33.00
2022-10-17T18:34:02.827Z,44.00
2022-10-17T18:36:31.257Z,34.10
2022-10-17T18:39:00.476Z,36.10
2022-10-17T18:41:27.551Z,25.20
2022-10-17T18:43:55.420Z,26.00
2022-10-17T18:46:25.047Z,23.10
2022-10-17T18:48:52.072Z,25.10
2022-10-17T18:51:21.086Z,27.50
2022-10-17T18:53:50.284Z,28.50
2022-10-17T18:56:18.049Z,31.20
2022-10-17T18:58:44.685Z,31.20
2022-10-17T19:01:17.104Z,29.30
2022-10-17T19:03:46.333Z,30.70
2022-10-17T19:06:16.105Z,24.20
2022-10-17T19:08:43.730Z,23.60
2022-10-17T19:11:17.054Z,22.90
2022-10-17T19:16:21.894Z,24.10
2022-10-17T19:18:53.657Z,22.00
2022-10-17T19:21:21.957Z,23.30
2022-10-17T19:23:51.833Z,25.00
2022-10-17T19:26:19.677Z,26.60
2022-10-17T19:28:47.252Z,24.60
2022-10-17T19:31:17.923Z,24.50
2022-10-17T19:33:45.343Z,24.90
2022-10-17T19:36:13.208Z,24.80
2022-10-17T19:38:39.835Z,26.90
2022-10-17T19:41:08.666Z,20.80
2022-10-17T19:43:37.016Z,17.70
2022-10-17T19:46:06.230Z,13.30
2022-10-17T19:48:36.110Z,12.70
2022-10-17T19:51:07.905Z,12.60
2022-10-17T19:53:35.098Z,14.50
2022-10-17T19:56:02.448Z,13.60
2022-10-17T19:58:29.071Z,11.70
2022-10-17T20:01:00.438Z,12.60
2022-10-17T20:03:28.142Z,10.60
2022-10-17T20:05:55.239Z,12.60
2022-10-17T20:08:22.308Z,9.00
2022-10-17T20:10:48.948Z,9.30
2022-10-17T20:13:15.601Z,9.80
2022-10-17T20:15:42.268Z,10.90
2022-10-17T20:18:09.197Z,11.70
2022-10-17T20:20:37.147Z,9.70
2022-10-17T20:23:04.384Z,10.30
2022-10-17T20:25:32.781Z,9.40
2022-10-17T20:27:59.787Z,8.60
2022-10-17T20:30:26.549Z,8.90
2022-10-17T20:32:56.589Z,9.50
2022-10-17T20:35:23.448Z,8.40
2022-10-17T20:37:50.182Z,10.80
2022-10-17T20:40:34.162Z,12.70
2022-10-17T20:43:03.584Z,9.80
2022-10-17T20:45:44.165Z,10.60
2022-10-17T20:48:18.537Z,26.30
2022-10-17T20:50:45.112Z,23.00
2022-10-17T20:56:08.461Z,17.70
2022-10-17T20:58:35.176Z,19.50
2022-10-17T21:01:07.213Z,21.60
2022-10-17T21:03:35.870Z,27.10
2022-10-17T21:08:30.013Z,22.00
2022-10-17T21:11:19.897Z,17.60
2022-10-17T21:13:48.132Z,16.40
2022-10-17T21:16:18.816Z,17.10
2022-10-17T21:18:45.940Z,15.50
2022-10-17T21:21:16.954Z,14.10
2022-10-17T21:23:44.986Z,19.20
2022-10-17T21:26:13.258Z,13.80
2022-10-17T21:28:41.574Z,12.50
2022-10-17T21:31:15.180Z,11.80
2022-10-17T21:33:45.071Z,11.20
2022-10-17T21:36:13.224Z,9.00
2022-10-17T21:38:40.287Z,8.80
2022-10-17T21:41:08.780Z,9.20
2022-10-17T21:43:36.757Z,7.40
2022-10-17T21:46:12.510Z,10.70
2022-10-17T21:48:39.617Z,9.50
2022-10-17T21:51:09.008Z,9.80
2022-10-17T21:53:36.970Z,8.20
2022-10-17T21:56:18.270Z,10.80
2022-10-17T21:58:46.726Z,12.30
2022-10-17T22:01:23.316Z,11.80
2022-10-17T22:03:53.265Z,11.30
2022-10-17T22:06:39.212Z,12.00
2022-10-17T22:09:12.696Z,10.20
2022-10-17T22:11:39.814Z,12.20
2022-10-17T22:14:10.754Z,12.60
2022-10-17T22:16:38.330Z,16.10
2022-10-17T22:19:07.163Z,14.70
2022-10-17T22:24:05.132Z,14.10
2022-10-17T22:26:34.067Z,13.20
2022-10-17T22:31:27.968Z,13.30
2022-10-17T22:33:55.161Z,12.30
2022-10-17T22:36:21.980Z,11.40
2022-10-17T22:38:48.656Z,9.30
2022-10-17T22:41:15.332Z,8.30
2022-10-17T22:43:42.014Z,7.60
2022-10-17T22:46:09.855Z,12.40
2022-10-17T22:48:36.466Z,7.90
2022-10-17T22:51:03.538Z,7.10
2022-10-17T22:53:30.245Z,7.10
2022-10-17T22:55:59.180Z,7.50
2022-10-17T22:58:27.315Z,6.40
2022-10-17T23:00:54.932Z,6.40
2022-10-17T23:03:23.111Z,5.30
2022-10-17T23:05:50.279Z,5.80
2022-10-17T23:08:17.796Z,5.00
2022-10-17T23:10:45.558Z,6.80
2022-10-17T23:13:12.922Z,6.00
2022-10-17T23:15:39.961Z,5.80
2022-10-17T23:18:07.245Z,10.30
2022-10-17T23:20:34.271Z,6.40
2022-10-17T23:23:00.805Z,6.30
2022-10-17T23:25:27.664Z,5.90
2022-10-17T23:27:54.966Z,6.60
2022-10-17T23:30:21.542Z,6.20
2022-10-17T23:32:48.094Z,6.20
2022-10-17T23:35:15.054Z,7.50
2022-10-17T23:37:41.955Z,6.90
2022-10-17T23:40:09.472Z,6.20
2022-10-17T23:42:36.178Z,6.20
2022-10-17T23:45:03.460Z,5.70
2022-10-17T23:47:30.617Z,7.10
2022-10-17T23:50:01.952Z,6.20
2022-10-17T23:52:28.868Z,6.50
2022-10-17T23:55:14.272Z,6.20
2022-10-17T23:57:40.843Z,6.10
